Invercargill, New Zealand
Current Conditions -  °F | °C
As of 12:00 AM on Thursday 23 Oct 2014 (Local Time) from NZCH Reporting Station
Broken Clouds Broken Clouds  
Wind Chill: 52°   Ceiling: 1900
Heat Index: 52°   Visibility: 6mi
Dew Point: 46°   Wind: 10mph
Humidity: 82%   Direction: 50°NE
Pressure: 30.06"   Gusts: NA
Location:  46.41°S, 168.36°E
Report Text: NZCH 221200Z AUTO 05009KT 9999 BKN019/// 11/08 Q1018 TEMPOBKN014
Loading
Personal Weather Stations






























Interactive Weather Map
Tropical Storm Tracking
New forecast layout! Learn more

10-Day Weather Forecast

Advertisements
Track Severe Weather on mobile